Time;durP1;ratioP1;P1;durP2;ratioP2;P2;SDS_P1;SDS_P2;PMS_P1;PMS_P2;Temp;Humidity;BMP_temperature;BMP_pressure;BME280_temperature;BME280_humidity;BME280_pressure;Samples;Min_cycle;Max_cycle;Signal;HPM_P1;HPM_P2
2023/01/23 00:00:57;;;;;;;21.73;11.43;;;;;;;;;;6032563;19;20002;-74
2023/01/23 00:03:15;;;;;;;20.55;11.00;;;;;;;;;;6057543;19;20097;-74
2023/01/23 00:05:23;;;;;;;20.58;11.07;;;;;;;;;;6026439;19;20010;-74
2023/01/23 00:07:42;;;;;;;21.05;9.88;;;;;;;;;;6029470;19;20011;-74
2023/01/23 00:09:52;;;;;;;19.73;11.40;;;;;;;;;;6056345;19;20006;-74
2023/01/23 00:12:02;;;;;;;25.77;9.73;;;;;;;;;;6058075;19;20382;-74
2023/01/23 00:14:15;;;;;;;19.17;9.48;;;;;;;;;;6034240;19;20513;-74
2023/01/23 00:16:32;;;;;;;26.67;10.88;;;;;;;;;;6030670;19;20007;-74
2023/01/23 00:18:51;;;;;;;23.52;11.48;;;;;;;;;;6050124;19;20091;-74
2023/01/23 00:21:15;;;;;;;21.50;11.50;;;;;;;;;;6027534;19;20010;-74
2023/01/23 00:23:21;;;;;;;19.15;10.50;;;;;;;;;;6025018;19;20536;-74
2023/01/23 00:25:33;;;;;;;20.60;9.13;;;;;;;;;;6047048;19;20495;-74
2023/01/23 00:27:44;;;;;;;21.02;9.68;;;;;;;;;;6047574;19;20011;-74
2023/01/23 00:29:55;;;;;;;22.02;9.95;;;;;;;;;;6027644;19;20422;-74
2023/01/23 00:32:09;;;;;;;21.13;9.88;;;;;;;;;;6056057;19;20021;-74
2023/01/23 00:34:23;;;;;;;21.97;10.73;;;;;;;;;;6032846;19;20057;-74
2023/01/23 00:36:33;;;;;;;22.45;10.23;;;;;;;;;;6031882;19;20360;-74
2023/01/23 00:38:51;;;;;;;22.80;10.15;;;;;;;;;;6006593;19;20274;-74
2023/01/23 00:41:11;;;;;;;20.52;8.52;;;;;;;;;;6051860;19;20276;-74
2023/01/23 00:43:19;;;;;;;21.95;11.45;;;;;;;;;;5974391;19;20665;-74
2023/01/23 00:45:26;;;;;;;25.48;10.65;;;;;;;;;;6057730;19;20503;-74
2023/01/23 00:47:39;;;;;;;23.90;9.82;;;;;;;;;;6060699;19;20003;-74
2023/01/23 00:49:57;;;;;;;29.75;10.45;;;;;;;;;;6058788;19;20082;-75
2023/01/23 00:52:19;;;;;;;19.88;10.65;;;;;;;;;;6035524;19;20014;-74
2023/01/23 00:54:33;;;;;;;22.15;10.10;;;;;;;;;;6046572;19;20419;-74
2023/01/23 00:56:42;;;;;;;21.55;10.18;;;;;;;;;;6052688;19;20014;-74
2023/01/23 00:58:51;;;;;;;20.45;9.77;;;;;;;;;;6053745;19;20015;-74
2023/01/23 01:00:58;;;;;;;19.77;9.75;;;;;;;;;;6000563;19;20022;-74
2023/01/23 01:03:19;;;;;;;21.00;9.60;;;;;;;;;;6024175;19;20517;-74
2023/01/23 01:05:24;;;;;;;24.92;10.85;;;;;;;;;;6049100;19;20180;-76
2023/01/23 01:07:31;;;;;;;21.45;9.07;;;;;;;;;;6055097;19;20305;-76
2023/01/23 01:09:36;;;;;;;22.92;9.80;;;;;;;;;;6050665;19;20017;-76
2023/01/23 01:11:45;;;;;;;18.10;8.85;;;;;;;;;;6054779;19;20031;-76
2023/01/23 01:13:50;;;;;;;25.10;10.95;;;;;;;;;;6048865;19;20042;-76
2023/01/23 01:15:55;;;;;;;20.30;10.15;;;;;;;;;;6053317;19;20339;-75
2023/01/23 01:18:00;;;;;;;25.90;10.48;;;;;;;;;;6051960;19;20010;-75
2023/01/23 01:20:07;;;;;;;23.48;9.90;;;;;;;;;;6051288;19;20333;-76
2023/01/23 01:22:12;;;;;;;24.42;12.32;;;;;;;;;;6056357;19;20010;-76
2023/01/23 01:24:26;;;;;;;22.80;9.70;;;;;;;;;;6063340;19;20279;-74
2023/01/23 01:27:01;;;;;;;26.40;10.50;;;;;;;;;;6028560;19;20015;-73
2023/01/23 01:29:19;;;;;;;23.02;9.73;;;;;;;;;;6032923;19;20015;-73
2023/01/23 01:31:30;;;;;;;20.63;9.60;;;;;;;;;;6045716;19;20566;-73
2023/01/23 01:33:43;;;;;;;25.98;10.23;;;;;;;;;;6051035;19;20034;-74
2023/01/23 01:36:00;;;;;;;22.20;9.85;;;;;;;;;;6044776;19;20400;-73
2023/01/23 01:38:22;;;;;;;22.25;10.40;;;;;;;;;;6042149;19;20015;-73
2023/01/23 01:40:47;;;;;;;22.48;9.63;;;;;;;;;;6014268;19;20547;-73
2023/01/23 01:43:12;;;;;;;25.90;9.45;;;;;;;;;;6046291;19;20212;-73
2023/01/23 01:46:00;;;;;;;23.05;10.73;;;;;;;;;;6042188;19;20532;-73
2023/01/23 01:48:14;;;;;;;21.80;10.00;;;;;;;;;;6040382;19;20558;-73
2023/01/23 01:50:34;;;;;;;26.38;11.55;;;;;;;;;;6046118;19;20183;-73
2023/01/23 01:52:43;;;;;;;20.60;9.23;;;;;;;;;;6023345;19;20025;-74
2023/01/23 01:54:55;;;;;;;21.05;9.82;;;;;;;;;;6014212;19;20522;-73
2023/01/23 01:57:09;;;;;;;22.95;10.55;;;;;;;;;;6038912;19;20086;-73
2023/01/23 01:59:32;;;;;;;20.23;10.45;;;;;;;;;;6016220;19;20327;-73
2023/01/23 02:02:08;;;;;;;24.60;10.18;;;;;;;;;;6009377;19;20987;-73
2023/01/23 02:04:22;;;;;;;20.77;9.80;;;;;;;;;;6055711;19;20333;-74
2023/01/23 02:06:38;;;;;;;25.13;10.95;;;;;;;;;;6030570;19;20014;-73
2023/01/23 02:09:00;;;;;;;22.38;10.40;;;;;;;;;;6021249;19;20248;-73
2023/01/23 02:11:07;;;;;;;26.02;11.13;;;;;;;;;;6023096;19;20011;-74
2023/01/23 02:13:31;;;;;;;18.67;10.20;;;;;;;;;;6007327;19;20011;-76
2023/01/23 02:15:38;;;;;;;26.40;11.40;;;;;;;;;;6052698;19;20109;-77
2023/01/23 02:17:44;;;;;;;23.48;10.32;;;;;;;;;;6053481;19;20183;-77
2023/01/23 02:19:56;;;;;;;22.98;10.45;;;;;;;;;;6054894;19;20228;-78
2023/01/23 02:22:15;;;;;;;19.85;10.18;;;;;;;;;;6052353;19;20509;-75
2023/01/23 02:24:26;;;;;;;20.92;9.77;;;;;;;;;;6051043;19;20498;-75
2023/01/23 02:26:36;;;;;;;23.95;10.60;;;;;;;;;;6062278;19;20019;-75
2023/01/23 02:28:44;;;;;;;25.67;10.63;;;;;;;;;;6052803;19;20017;-75
2023/01/23 02:30:50;;;;;;;21.45;10.25;;;;;;;;;;6056339;19;20453;-76
2023/01/23 02:32:55;;;;;;;24.92;10.73;;;;;;;;;;6057172;19;20006;-75
2023/01/23 02:35:07;;;;;;;20.88;10.18;;;;;;;;;;6054185;19;20317;-75
2023/01/23 02:37:13;;;;;;;22.50;11.07;;;;;;;;;;6031265;19;20078;-75
2023/01/23 02:39:22;;;;;;;25.42;12.00;;;;;;;;;;6057231;19;20470;-75
2023/01/23 02:41:32;;;;;;;23.35;11.45;;;;;;;;;;6056365;19;20684;-75
2023/01/23 02:43:40;;;;;;;17.98;8.93;;;;;;;;;;6055866;19;20051;-77
2023/01/23 02:45:45;;;;;;;22.75;9.85;;;;;;;;;;6059783;19;20015;-76
2023/01/23 02:47:51;;;;;;;20.23;10.27;;;;;;;;;;6067505;19;20018;-76
2023/01/23 02:49:56;;;;;;;22.38;10.80;;;;;;;;;;6055994;19;20039;-74
2023/01/23 02:52:05;;;;;;;28.70;10.85;;;;;;;;;;6060613;19;20014;-76
2023/01/23 02:54:10;;;;;;;20.60;11.23;;;;;;;;;;6053185;19;20203;-77
2023/01/23 02:56:17;;;;;;;24.02;10.82;;;;;;;;;;6050837;19;20366;-76
2023/01/23 03:00:45;;;;;;;24.65;10.25;;;;;;;;;;6045758;19;20497;-77
2023/01/23 03:02:53;;;;;;;22.38;10.27;;;;;;;;;;6043915;19;20279;-76
2023/01/23 03:04:59;;;;;;;26.05;10.57;;;;;;;;;;6054506;19;20760;-75
2023/01/23 03:07:07;;;;;;;22.02;9.90;;;;;;;;;;6047137;19;20483;-75
2023/01/23 03:09:14;;;;;;;23.20;11.23;;;;;;;;;;6046324;19;20519;-75
2023/01/23 03:11:22;;;;;;;20.88;10.48;;;;;;;;;;6057840;19;20275;-75
2023/01/23 03:13:34;;;;;;;24.15;11.48;;;;;;;;;;6050898;19;20242;-76
2023/01/23 03:15:41;;;;;;;23.27;11.10;;;;;;;;;;6053720;19;20013;-76
2023/01/23 03:17:48;;;;;;;25.42;10.52;;;;;;;;;;6053606;19;20003;-76
2023/01/23 03:19:54;;;;;;;22.88;10.48;;;;;;;;;;6068083;19;20019;-76
2023/01/23 03:21:59;;;;;;;26.40;9.80;;;;;;;;;;6055398;19;20482;-75
2023/01/23 03:24:08;;;;;;;23.50;11.25;;;;;;;;;;6050234;19;20684;-75
2023/01/23 03:26:16;;;;;;;27.02;10.90;;;;;;;;;;6049004;19;20490;-75
2023/01/23 03:30:39;;;;;;;20.55;10.18;;;;;;;;;;6050190;19;20021;-75
2023/01/23 03:32:48;;;;;;;29.88;10.98;;;;;;;;;;6068066;19;20306;-75
2023/01/23 03:34:53;;;;;;;26.60;10.23;;;;;;;;;;6053012;19;20518;-75
2023/01/23 03:37:02;;;;;;;23.08;10.30;;;;;;;;;;6053621;19;20182;-75
2023/01/23 03:42:03;;;;;;;;;;;;;;;;;;;;;
2023/01/23 03:44:26;;;;;;;25.17;11.55;;;;;;;;;;6037820;19;20018;-72
2023/01/23 03:46:37;;;;;;;26.95;11.57;;;;;;;;;;6046175;19;20464;-74
2023/01/23 03:48:51;;;;;;;23.58;10.80;;;;;;;;;;6012089;19;20010;-74
2023/01/23 03:51:03;;;;;;;24.67;10.50;;;;;;;;;;6050886;19;20042;-76
2023/01/23 03:53:08;;;;;;;22.92;10.25;;;;;;;;;;6047354;19;20007;-75
2023/01/23 03:55:14;;;;;;;25.95;10.27;;;;;;;;;;6055437;19;20185;-76
2023/01/23 03:57:19;;;;;;;32.17;11.07;;;;;;;;;;6052560;19;20407;-76
2023/01/23 03:59:24;;;;;;;26.85;11.25;;;;;;;;;;6054249;19;20383;-75
2023/01/23 04:01:30;;;;;;;21.25;10.38;;;;;;;;;;6045249;19;20308;-76
2023/01/23 04:03:35;;;;;;;23.48;10.40;;;;;;;;;;6045745;19;20700;-76
2023/01/23 04:05:42;;;;;;;29.27;11.02;;;;;;;;;;6053477;19;20187;-76
2023/01/23 04:07:47;;;;;;;24.13;11.40;;;;;;;;;;6063877;19;20326;-75
2023/01/23 04:09:53;;;;;;;25.50;10.85;;;;;;;;;;6050523;19;20113;-75
2023/01/23 04:12:00;;;;;;;24.52;11.18;;;;;;;;;;6048978;19;20502;-76
2023/01/23 04:14:05;;;;;;;21.45;11.00;;;;;;;;;;6046688;19;20323;-74
2023/01/23 04:16:10;;;;;;;23.98;10.35;;;;;;;;;;6047701;19;20616;-75
2023/01/23 04:18:15;;;;;;;23.10;10.50;;;;;;;;;;6046622;19;20042;-74
2023/01/23 04:20:21;;;;;;;23.92;10.73;;;;;;;;;;6050904;19;20037;-76
2023/01/23 04:22:31;;;;;;;28.05;12.00;;;;;;;;;;6050322;19;20014;-76
2023/01/23 04:24:36;;;;;;;26.63;10.60;;;;;;;;;;6049437;19;20007;-75
2023/01/23 04:26:41;;;;;;;26.02;11.23;;;;;;;;;;6044971;19;20489;-76
2023/01/23 04:28:49;;;;;;;22.73;10.13;;;;;;;;;;6038507;19;20701;-76
2023/01/23 04:30:55;;;;;;;24.33;10.68;;;;;;;;;;6049316;19;20420;-76
2023/01/23 04:33:00;;;;;;;23.42;11.07;;;;;;;;;;6044311;19;20489;-76
2023/01/23 04:35:07;;;;;;;28.45;11.80;;;;;;;;;;6044422;19;20010;-76
2023/01/23 04:37:15;;;;;;;25.85;11.77;;;;;;;;;;6058081;19;20011;-76
2023/01/23 04:39:23;;;;;;;26.98;11.60;;;;;;;;;;6045689;19;20014;-76
2023/01/23 04:41:30;;;;;;;24.33;11.40;;;;;;;;;;6036615;19;20297;-74
2023/01/23 04:43:40;;;;;;;28.33;12.13;;;;;;;;;;6019377;19;20338;-73
2023/01/23 04:45:52;;;;;;;34.38;11.52;;;;;;;;;;6053926;19;20639;-75
2023/01/23 04:47:57;;;;;;;26.88;11.43;;;;;;;;;;6044536;19;20045;-76
2023/01/23 04:50:08;;;;;;;24.42;11.30;;;;;;;;;;6055460;19;20499;-75
2023/01/23 04:52:20;;;;;;;25.77;11.68;;;;;;;;;;6050172;19;20430;-74
2023/01/23 04:54:35;;;;;;;24.83;10.32;;;;;;;;;;6061328;19;20296;-75
2023/01/23 04:56:40;;;;;;;26.90;12.05;;;;;;;;;;6038341;19;20282;-76
2023/01/23 04:58:45;;;;;;;28.73;13.18;;;;;;;;;;6054006;19;20301;-76
2023/01/23 05:00:51;;;;;;;32.95;12.55;;;;;;;;;;6057292;19;20196;-76
2023/01/23 05:02:56;;;;;;;26.80;10.55;;;;;;;;;;6057130;19;20042;-75
2023/01/23 05:05:01;;;;;;;25.13;11.15;;;;;;;;;;6055757;19;20078;-76
2023/01/23 05:07:08;;;;;;;22.40;11.15;;;;;;;;;;6058289;19;20060;-75
2023/01/23 05:09:14;;;;;;;25.08;11.65;;;;;;;;;;6065395;19;20028;-74
2023/01/23 05:11:22;;;;;;;25.52;12.05;;;;;;;;;;6057868;19;20574;-75
2023/01/23 05:13:28;;;;;;;24.70;11.38;;;;;;;;;;6054579;19;20298;-76
2023/01/23 05:15:34;;;;;;;28.27;11.50;;;;;;;;;;6055635;19;20027;-76
2023/01/23 05:17:38;;;;;;;32.03;12.82;;;;;;;;;;6056769;19;20104;-76
2023/01/23 05:19:43;;;;;;;30.08;12.48;;;;;;;;;;6060790;19;20007;-75
2023/01/23 05:21:49;;;;;;;29.42;12.30;;;;;;;;;;6056276;19;20389;-75
2023/01/23 05:23:54;;;;;;;26.23;12.45;;;;;;;;;;6059255;19;20554;-76
2023/01/23 05:25:59;;;;;;;31.90;12.15;;;;;;;;;;6059228;19;20165;-74
2023/01/23 05:28:08;;;;;;;23.42;11.40;;;;;;;;;;6059036;19;20025;-76
2023/01/23 05:30:15;;;;;;;27.13;12.50;;;;;;;;;;6060909;19;20028;-76
2023/01/23 05:32:21;;;;;;;33.95;12.25;;;;;;;;;;6059105;19;20049;-76
2023/01/23 05:34:26;;;;;;;28.63;12.30;;;;;;;;;;6064482;19;20490;-76
2023/01/23 05:36:31;;;;;;;25.85;10.50;;;;;;;;;;6067901;19;20507;-76
2023/01/23 05:38:36;;;;;;;30.02;13.40;;;;;;;;;;6070861;19;20010;-77
2023/01/23 05:40:41;;;;;;;33.47;12.65;;;;;;;;;;6061522;19;20219;-74
2023/01/23 05:42:48;;;;;;;27.30;11.40;;;;;;;;;;6041397;19;20015;-75
2023/01/23 05:44:56;;;;;;;27.10;12.07;;;;;;;;;;6057554;19;20570;-77
2023/01/23 05:47:01;;;;;;;31.63;12.00;;;;;;;;;;6059310;19;20289;-77
2023/01/23 05:49:06;;;;;;;33.95;13.48;;;;;;;;;;6054807;19;20318;-75
2023/01/23 05:51:12;;;;;;;24.15;11.30;;;;;;;;;;6052344;19;20479;-76
2023/01/23 05:53:19;;;;;;;29.25;11.70;;;;;;;;;;6051638;19;20446;-75
2023/01/23 05:55:25;;;;;;;29.35;13.23;;;;;;;;;;6056964;19;20021;-76
2023/01/23 05:57:31;;;;;;;25.75;12.88;;;;;;;;;;6057208;19;20055;-76
2023/01/23 05:59:36;;;;;;;31.58;11.45;;;;;;;;;;6055129;19;20212;-75
2023/01/23 06:01:44;;;;;;;28.40;12.60;;;;;;;;;;6063783;19;20556;-76
2023/01/23 06:03:49;;;;;;;28.52;12.88;;;;;;;;;;6060017;19;20015;-75
2023/01/23 06:05:54;;;;;;;28.80;11.80;;;;;;;;;;6059890;19;20068;-75
2023/01/23 06:08:01;;;;;;;26.17;10.70;;;;;;;;;;6052058;19;20704;-75
2023/01/23 06:10:08;;;;;;;29.27;12.85;;;;;;;;;;6051074;19;20320;-76
2023/01/23 06:12:16;;;;;;;36.67;12.82;;;;;;;;;;6055333;19;20457;-77
2023/01/23 06:14:21;;;;;;;30.65;13.00;;;;;;;;;;6053676;19;20514;-75
2023/01/23 06:16:29;;;;;;;25.85;11.70;;;;;;;;;;6052718;19;20018;-77
2023/01/23 06:18:39;;;;;;;28.23;12.65;;;;;;;;;;6054668;19;20023;-77
2023/01/23 06:20:44;;;;;;;33.72;14.68;;;;;;;;;;6047664;19;20445;-76
2023/01/23 06:22:49;;;;;;;28.95;13.10;;;;;;;;;;6047786;19;20326;-76
2023/01/23 06:24:54;;;;;;;27.50;11.75;;;;;;;;;;6050546;19;20334;-77
2023/01/23 06:27:03;;;;;;;32.65;13.48;;;;;;;;;;6047923;19;20520;-75
2023/01/23 06:29:08;;;;;;;32.60;13.05;;;;;;;;;;6043596;19;20187;-76
2023/01/23 06:31:15;;;;;;;26.63;11.50;;;;;;;;;;6049738;19;20268;-77
2023/01/23 06:33:21;;;;;;;31.83;13.45;;;;;;;;;;6040641;19;20332;-77
2023/01/23 06:35:28;;;;;;;29.50;13.32;;;;;;;;;;6046975;19;20094;-77
2023/01/23 06:37:33;;;;;;;31.40;12.68;;;;;;;;;;6046272;19;20342;-75
2023/01/23 06:39:38;;;;;;;28.67;12.57;;;;;;;;;;6050613;19;20438;-75
2023/01/23 06:41:43;;;;;;;31.30;12.55;;;;;;;;;;6044034;19;20090;-75
2023/01/23 06:43:49;;;;;;;35.92;14.52;;;;;;;;;;6049136;19;20021;-75
2023/01/23 06:45:54;;;;;;;28.40;12.85;;;;;;;;;;6047221;19;20015;-75
2023/01/23 06:48:09;;;;;;;34.60;13.63;;;;;;;;;;6052867;19;20011;-73
2023/01/23 06:50:18;;;;;;;31.50;12.32;;;;;;;;;;6037066;19;20042;-73
2023/01/23 06:52:32;;;;;;;31.90;13.82;;;;;;;;;;6037078;19;20018;-74
2023/01/23 06:54:42;;;;;;;31.63;12.68;;;;;;;;;;6010040;19;20327;-75
2023/01/23 06:56:58;;;;;;;31.98;13.95;;;;;;;;;;6030911;19;20015;-74
2023/01/23 06:59:08;;;;;;;29.80;12.93;;;;;;;;;;6037869;19;20025;-74
2023/01/23 07:01:18;;;;;;;28.27;13.93;;;;;;;;;;6039021;19;20186;-74
2023/01/23 07:03:28;;;;;;;26.92;12.05;;;;;;;;;;6007243;19;20018;-75
2023/01/23 07:05:39;;;;;;;25.77;11.85;;;;;;;;;;6025779;19;20506;-74
2023/01/23 07:07:50;;;;;;;31.70;14.73;;;;;;;;;;6061400;19;20501;-74
2023/01/23 07:09:55;;;;;;;28.08;13.25;;;;;;;;;;6009733;19;20346;-74
2023/01/23 07:12:01;;;;;;;28.60;13.00;;;;;;;;;;6034899;19;20498;-75
2023/01/23 07:14:11;;;;;;;32.65;13.63;;;;;;;;;;6030424;19;20558;-75
2023/01/23 07:16:24;;;;;;;32.03;14.80;;;;;;;;;;6005128;19;20018;-75
2023/01/23 07:18:37;;;;;;;29.60;13.68;;;;;;;;;;6009339;19;20007;-74
2023/01/23 07:20:49;;;;;;;29.98;12.52;;;;;;;;;;6021205;19;20010;-73
2023/01/23 07:23:01;;;;;;;33.15;13.05;;;;;;;;;;6047427;19;20014;-73
2023/01/23 07:25:11;;;;;;;34.42;13.82;;;;;;;;;;6032529;19;20010;-73
2023/01/23 07:27:18;;;;;;;27.52;12.20;;;;;;;;;;6033519;19;20424;-73
2023/01/23 07:29:28;;;;;;;33.90;12.88;;;;;;;;;;6022640;19;20532;-75
2023/01/23 07:31:38;;;;;;;34.45;13.10;;;;;;;;;;6034913;19;22297;-75
2023/01/23 07:33:51;;;;;;;32.47;12.82;;;;;;;;;;6051486;19;20500;-75
2023/01/23 07:36:06;;;;;;;31.90;13.85;;;;;;;;;;6050277;19;20007;-72
2023/01/23 07:38:30;;;;;;;34.85;13.63;;;;;;;;;;6026579;19;20023;-75
2023/01/23 07:40:42;;;;;;;35.35;15.27;;;;;;;;;;6009992;19;20006;-75
2023/01/23 07:42:50;;;;;;;33.08;14.25;;;;;;;;;;6029447;19;20447;-73
2023/01/23 07:45:12;;;;;;;34.42;13.25;;;;;;;;;;6050964;19;20687;-74
2023/01/23 07:47:23;;;;;;;28.77;13.02;;;;;;;;;;6009209;19;20533;-74
2023/01/23 07:49:36;;;;;;;34.25;14.57;;;;;;;;;;6041094;19;20303;-74
2023/01/23 07:51:51;;;;;;;34.60;14.82;;;;;;;;;;6024955;19;20276;-75
2023/01/23 07:56:27;;;;;;;32.38;12.55;;;;;;;;;;6046297;19;20014;-75
2023/01/23 07:58:41;;;;;;;27.25;12.70;;;;;;;;;;6030305;19;20388;-74
2023/01/23 08:00:52;;;;;;;28.58;12.90;;;;;;;;;;6007867;19;20425;-73
2023/01/23 08:03:01;;;;;;;27.73;13.50;;;;;;;;;;6044676;19;20285;-73
2023/01/23 08:05:15;;;;;;;30.70;13.77;;;;;;;;;;6035327;19;20373;-73
2023/01/23 08:07:25;;;;;;;32.63;13.20;;;;;;;;;;6041156;19;20088;-73
2023/01/23 08:09:34;;;;;;;26.35;13.38;;;;;;;;;;6048686;19;20530;-73
2023/01/23 08:11:44;;;;;;;35.20;14.73;;;;;;;;;;6040731;19;20329;-75
2023/01/23 08:13:56;;;;;;;32.13;13.10;;;;;;;;;;6042631;19;20026;-73
2023/01/23 08:16:14;;;;;;;39.58;14.98;;;;;;;;;;6049382;19;20006;-73
2023/01/23 08:18:30;;;;;;;30.90;13.10;;;;;;;;;;6049292;19;20018;-73
2023/01/23 08:20:44;;;;;;;33.13;13.30;;;;;;;;;;6026316;19;20223;-73
2023/01/23 08:22:54;;;;;;;29.85;12.95;;;;;;;;;;6044572;19;20015;-74
2023/01/23 08:25:10;;;;;;;29.02;14.02;;;;;;;;;;6005849;19;20015;-73
2023/01/23 08:27:26;;;;;;;36.03;14.07;;;;;;;;;;6023928;19;20054;-74
2023/01/23 08:29:40;;;;;;;28.70;12.52;;;;;;;;;;6043161;19;20010;-73
2023/01/23 08:31:48;;;;;;;29.10;13.13;;;;;;;;;;6025885;19;20266;-74
2023/01/23 08:34:08;;;;;;;33.83;13.48;;;;;;;;;;6036309;19;20368;-74
2023/01/23 08:36:21;;;;;;;35.00;14.20;;;;;;;;;;6026299;19;20322;-75
2023/01/23 08:38:32;;;;;;;29.92;13.93;;;;;;;;;;6007194;19;20519;-75
2023/01/23 08:40:41;;;;;;;35.55;13.55;;;;;;;;;;6044296;19;20011;-74
2023/01/23 08:42:57;;;;;;;28.92;12.20;;;;;;;;;;6049520;19;20322;-74
2023/01/23 08:45:24;;;;;;;29.48;14.48;;;;;;;;;;6042755;19;20014;-74
2023/01/23 08:47:35;;;;;;;28.17;13.52;;;;;;;;;;6018772;19;20206;-74
2023/01/23 08:49:44;;;;;;;31.77;14.93;;;;;;;;;;6043496;19;20642;-74
2023/01/23 08:51:55;;;;;;;29.70;13.98;;;;;;;;;;6046533;19;20038;-74
2023/01/23 08:54:05;;;;;;;30.50;13.30;;;;;;;;;;6019251;19;20486;-73
2023/01/23 08:56:21;;;;;;;32.60;14.27;;;;;;;;;;6016756;19;20010;-74
2023/01/23 08:58:39;;;;;;;32.20;14.25;;;;;;;;;;6023974;19;20022;-74
2023/01/23 09:01:01;;;;;;;28.95;13.80;;;;;;;;;;6020829;19;20038;-74
2023/01/23 09:03:08;;;;;;;35.47;14.40;;;;;;;;;;6019006;19;20033;-73
2023/01/23 09:05:25;;;;;;;31.83;15.07;;;;;;;;;;6032427;19;20492;-75
2023/01/23 09:07:31;;;;;;;32.78;14.23;;;;;;;;;;6049618;19;20334;-75
2023/01/23 09:09:37;;;;;;;29.75;13.02;;;;;;;;;;6047188;19;20594;-77
2023/01/23 09:11:45;;;;;;;30.40;12.98;;;;;;;;;;6050242;19;20007;-76
2023/01/23 09:13:51;;;;;;;33.78;13.60;;;;;;;;;;6041490;19;20052;-75
2023/01/23 09:16:01;;;;;;;33.42;14.57;;;;;;;;;;6039004;19;20018;-75
2023/01/23 09:18:06;;;;;;;34.63;13.07;;;;;;;;;;6052723;19;20310;-75
2023/01/23 09:20:14;;;;;;;29.75;14.10;;;;;;;;;;6044575;19;20025;-75
2023/01/23 09:22:19;;;;;;;37.50;15.27;;;;;;;;;;6047355;19;20754;-75
2023/01/23 09:24:24;;;;;;;32.85;15.15;;;;;;;;;;6043707;19;20384;-75
2023/01/23 09:26:31;;;;;;;31.35;13.20;;;;;;;;;;6042291;19;20381;-75
2023/01/23 09:28:41;;;;;;;33.72;15.50;;;;;;;;;;6058872;19;20034;-75
2023/01/23 09:30:49;;;;;;;31.73;13.85;;;;;;;;;;6047510;19;20098;-77
2023/01/23 09:32:56;;;;;;;25.67;13.00;;;;;;;;;;6046994;19;20021;-76
2023/01/23 09:35:06;;;;;;;29.73;15.18;;;;;;;;;;6045825;19;20483;-77
2023/01/23 09:37:10;;;;;;;33.42;14.95;;;;;;;;;;6043101;19;20401;-76
2023/01/23 09:39:15;;;;;;;25.55;13.00;;;;;;;;;;6043805;19;20015;-76
2023/01/23 09:41:22;;;;;;;31.90;14.27;;;;;;;;;;6052461;19;20028;-76
2023/01/23 09:43:41;;;;;;;31.00;15.25;;;;;;;;;;6049260;19;20283;-76
2023/01/23 09:45:51;;;;;;;33.63;15.85;;;;;;;;;;6049436;19;20010;-74
2023/01/23 09:48:01;;;;;;;29.63;12.80;;;;;;;;;;6048996;19;20014;-74
2023/01/23 09:50:09;;;;;;;27.48;12.93;;;;;;;;;;6046200;19;20214;-76
2023/01/23 09:52:20;;;;;;;27.92;12.50;;;;;;;;;;6048703;19;20640;-75
2023/01/23 09:54:35;;;;;;;29.30;13.50;;;;;;;;;;6050477;19;20010;-75
2023/01/23 09:56:45;;;;;;;32.53;13.07;;;;;;;;;;6047073;19;20078;-75
2023/01/23 09:59:04;;;;;;;28.30;13.38;;;;;;;;;;6051709;19;20068;-76
2023/01/23 10:01:12;;;;;;;32.15;13.85;;;;;;;;;;6053665;19;20283;-75
2023/01/23 10:03:19;;;;;;;24.42;12.63;;;;;;;;;;6052970;19;20291;-76
2023/01/23 10:05:30;;;;;;;31.08;13.27;;;;;;;;;;6052196;19;20351;-76
2023/01/23 10:07:54;;;;;;;27.02;11.90;;;;;;;;;;6056397;19;20273;-76
2023/01/23 10:10:24;;;;;;;30.27;13.20;;;;;;;;;;6051185;19;20011;-76
2023/01/23 10:12:37;;;;;;;27.25;13.45;;;;;;;;;;6052029;19;20400;-76
2023/01/23 10:15:04;;;;;;;25.88;12.52;;;;;;;;;;6052766;19;20025;-76
2023/01/23 10:17:14;;;;;;;32.70;12.80;;;;;;;;;;6055844;19;20366;-76
2023/01/23 10:19:43;;;;;;;23.25;11.70;;;;;;;;;;6028225;19;20177;-77
2023/01/23 10:21:52;;;;;;;27.75;12.85;;;;;;;;;;6049111;19;20387;-77
2023/01/23 10:24:06;;;;;;;43.00;13.15;;;;;;;;;;6045910;19;20620;-74
2023/01/23 10:26:17;;;;;;;27.27;12.18;;;;;;;;;;6053758;19;20014;-75
2023/01/23 10:28:31;;;;;;;29.30;13.45;;;;;;;;;;6045781;19;20251;-75
2023/01/23 10:30:39;;;;;;;26.77;13.23;;;;;;;;;;6049499;19;20010;-74
2023/01/23 10:32:48;;;;;;;27.50;13.75;;;;;;;;;;6051305;19;20276;-76
2023/01/23 10:34:58;;;;;;;26.75;13.45;;;;;;;;;;6047852;19;20495;-75
2023/01/23 10:37:15;;;;;;;26.27;12.15;;;;;;;;;;6053803;19;20554;-74
2023/01/23 10:39:24;;;;;;;25.08;11.20;;;;;;;;;;6046941;19;20042;-74
2023/01/23 10:41:32;;;;;;;28.02;13.07;;;;;;;;;;6048675;19;20170;-74
2023/01/23 10:43:39;;;;;;;26.02;12.27;;;;;;;;;;6044005;19;20018;-74
2023/01/23 10:45:47;;;;;;;28.17;13.00;;;;;;;;;;6046198;19;20017;-74
2023/01/23 10:47:52;;;;;;;32.72;13.27;;;;;;;;;;6049074;19;20018;-74
2023/01/23 10:50:00;;;;;;;26.98;13.77;;;;;;;;;;6050636;19;20212;-74
2023/01/23 10:52:06;;;;;;;26.23;12.27;;;;;;;;;;6045271;19;20236;-74
2023/01/23 10:54:20;;;;;;;28.20;12.13;;;;;;;;;;6048620;19;20059;-74
2023/01/23 10:56:38;;;;;;;23.50;11.90;;;;;;;;;;6050123;19;20351;-74
2023/01/23 10:58:43;;;;;;;29.60;12.88;;;;;;;;;;6049377;19;20007;-74
2023/01/23 11:00:54;;;;;;;30.75;13.93;;;;;;;;;;6046982;19;20438;-74
2023/01/23 11:03:37;;;;;;;29.00;13.10;;;;;;;;;;6041416;19;20721;-74
2023/01/23 11:05:44;;;;;;;25.48;13.10;;;;;;;;;;6044513;19;20519;-74
2023/01/23 11:07:58;;;;;;;24.83;12.02;;;;;;;;;;6046928;19;20015;-74
2023/01/23 11:10:18;;;;;;;27.90;13.20;;;;;;;;;;6052786;19;20421;-74
2023/01/23 11:12:25;;;;;;;25.67;11.80;;;;;;;;;;6055971;19;20058;-74
2023/01/23 11:14:31;;;;;;;25.98;11.98;;;;;;;;;;6049157;19;20031;-74
2023/01/23 11:16:40;;;;;;;20.55;10.80;;;;;;;;;;6048799;19;20239;-74
2023/01/23 11:18:50;;;;;;;30.55;12.60;;;;;;;;;;6051716;19;20401;-73
2023/01/23 11:20:57;;;;;;;24.92;13.10;;;;;;;;;;6050730;19;20308;-73
2023/01/23 11:23:06;;;;;;;26.88;12.48;;;;;;;;;;6051073;19;20031;-73
2023/01/23 11:25:31;;;;;;;26.08;12.82;;;;;;;;;;6044504;19;20226;-74
2023/01/23 11:27:36;;;;;;;23.92;12.30;;;;;;;;;;6046739;19;20014;-73
2023/01/23 11:29:55;;;;;;;25.35;11.20;;;;;;;;;;6041988;19;20772;-75
2023/01/23 11:32:10;;;;;;;25.33;12.20;;;;;;;;;;6044172;19;20199;-73
2023/01/23 11:34:18;;;;;;;29.85;13.18;;;;;;;;;;6044242;19;20010;-74
2023/01/23 11:36:37;;;;;;;24.67;12.10;;;;;;;;;;6045087;19;20204;-74
2023/01/23 11:38:47;;;;;;;25.73;11.52;;;;;;;;;;6045346;19;20671;-73
2023/01/23 11:40:57;;;;;;;24.83;11.65;;;;;;;;;;6047620;19;20699;-75
2023/01/23 11:43:05;;;;;;;22.77;10.27;;;;;;;;;;6047769;19;20295;-73
2023/01/23 11:45:15;;;;;;;22.73;12.57;;;;;;;;;;6041051;19;20049;-73
2023/01/23 11:47:49;;;;;;;23.02;12.05;;;;;;;;;;6046082;19;20015;-76
2023/01/23 11:50:07;;;;;;;23.40;11.95;;;;;;;;;;6045915;19;20223;-75
2023/01/23 11:52:22;;;;;;;23.27;11.05;;;;;;;;;;6053648;19;20154;-75
2023/01/23 11:54:44;;;;;;;22.83;11.80;;;;;;;;;;6046492;19;20081;-73
2023/01/23 11:57:06;;;;;;;23.75;11.70;;;;;;;;;;6046009;19;20195;-73
2023/01/23 11:59:25;;;;;;;23.65;11.82;;;;;;;;;;6045863;19;20082;-73
2023/01/23 12:01:33;;;;;;;22.85;12.35;;;;;;;;;;6049040;19;20225;-73
2023/01/23 12:04:14;;;;;;;25.02;11.90;;;;;;;;;;6049533;19;20291;-74
2023/01/23 12:06:41;;;;;;;25.25;11.93;;;;;;;;;;6044745;19;20098;-74
2023/01/23 12:08:52;;;;;;;25.27;12.05;;;;;;;;;;6045926;19;20026;-74
2023/01/23 12:11:11;;;;;;;23.65;11.68;;;;;;;;;;6052753;19;20042;-74
2023/01/23 12:13:48;;;;;;;24.10;11.15;;;;;;;;;;6049963;19;20298;-72
2023/01/23 12:16:09;;;;;;;24.23;10.60;;;;;;;;;;6030726;19;20018;-73
2023/01/23 12:18:27;;;;;;;23.88;11.85;;;;;;;;;;6000280;19;20300;-72
2023/01/23 12:20:41;;;;;;;23.58;10.52;;;;;;;;;;6050387;19;20019;-74
2023/01/23 12:22:56;;;;;;;26.23;11.68;;;;;;;;;;6047208;19;20613;-75
2023/01/23 12:25:15;;;;;;;23.33;11.52;;;;;;;;;;6045678;19;20011;-74
2023/01/23 12:27:25;;;;;;;26.58;12.57;;;;;;;;;;6039458;19;20051;-74
2023/01/23 12:29:52;;;;;;;22.48;11.40;;;;;;;;;;6046137;19;20290;-74
2023/01/23 12:32:12;;;;;;;21.75;10.57;;;;;;;;;;6042787;19;20007;-75
2023/01/23 12:34:33;;;;;;;22.80;11.30;;;;;;;;;;6042907;19;20319;-75
2023/01/23 12:36:51;;;;;;;19.00;10.30;;;;;;;;;;6042253;19;20018;-73
2023/01/23 12:39:36;;;;;;;22.52;10.85;;;;;;;;;;6024427;19;20386;-74
2023/01/23 12:41:45;;;;;;;21.98;9.80;;;;;;;;;;6044882;19;20188;-74
2023/01/23 12:43:53;;;;;;;16.27;8.77;;;;;;;;;;6045523;19;20047;-75
2023/01/23 12:46:06;;;;;;;18.58;8.82;;;;;;;;;;6039720;19;20119;-75
2023/01/23 12:48:18;;;;;;;17.58;9.43;;;;;;;;;;6040219;19;20365;-75
2023/01/23 12:50:26;;;;;;;18.67;8.80;;;;;;;;;;6042322;19;20483;-75
2023/01/23 12:52:35;;;;;;;21.88;9.75;;;;;;;;;;6043198;19;20193;-72
2023/01/23 12:54:52;;;;;;;20.42;10.45;;;;;;;;;;6044365;19;20193;-74